Ammon, Idaho
Current Conditions -  °F | °C
As of 11:53 AM on Tuesday 21 Oct 2014 (Local Time) from KIDA Reporting Station
Broken Clouds Broken Clouds  
Wind Chill: 38°   Ceiling: 4700
Heat Index: 46°   Visibility: 10mi
Dew Point: 39°   Wind: 24mph
Humidity: 76%   Direction: 190°S
Pressure: 30"   Gusts: 33mph
Location:  43.4284°N, 111.925°W
Report Text: KIDA 211753Z 19021G29KT 10SM BKN047 BKN060 08/04 A3000 RMK AO2 PK WND 20031/1658 RAB05E44 SLP154 P0001 60001 T00780039 10150 20067 53001
Loading
Personal Weather Stations






























Interactive Weather Map
Tropical Storm Tracking
New forecast layout! Learn more

10-Day Weather Forecast

Advertisements
Track Severe Weather on mobile